createdAt,value
2018-11-29T00:00:52.400Z,11.30
2018-11-29T00:05:57.721Z,12.70
2018-11-29T00:11:18.777Z,9.97
2018-11-29T00:16:24.026Z,12.90
2018-11-29T00:21:28.988Z,15.30
2018-11-29T00:26:33.845Z,12.10
2018-11-29T00:31:38.816Z,13.07
2018-11-29T00:36:43.701Z,16.10
2018-11-29T00:41:48.577Z,12.77
2018-11-29T00:46:53.443Z,11.83
2018-11-29T00:51:58.993Z,10.23
2018-11-29T00:57:04.086Z,11.07
2018-11-29T01:02:08.872Z,11.93
2018-11-29T01:07:13.501Z,9.77
2018-11-29T01:12:18.434Z,12.37
2018-11-29T01:17:24.178Z,13.83
2018-11-29T01:22:30.125Z,9.07
2018-11-29T01:27:34.638Z,11.97
2018-11-29T01:32:39.497Z,9.83
2018-11-29T01:37:44.247Z,13.43
2018-11-29T01:42:57.095Z,12.60
2018-11-29T01:48:01.896Z,12.40
2018-11-29T01:53:07.194Z,15.27
2018-11-29T01:58:11.830Z,11.47
2018-11-29T02:03:16.928Z,13.87
2018-11-29T02:08:22.056Z,14.83
2018-11-29T02:13:26.981Z,11.57
2018-11-29T02:18:31.566Z,12.17
2018-11-29T02:23:36.617Z,12.83
2018-11-29T02:28:46.143Z,12.07
2018-11-29T02:33:50.870Z,15.17
2018-11-29T02:38:55.793Z,15.23
2018-11-29T02:44:01.145Z,13.30
2018-11-29T02:49:05.885Z,11.30
2018-11-29T02:54:10.945Z,12.63
2018-11-29T02:59:15.812Z,15.07
2018-11-29T03:04:20.527Z,14.37
2018-11-29T03:09:25.327Z,14.03
2018-11-29T03:14:30.067Z,12.30
2018-11-29T03:19:34.954Z,11.03
2018-11-29T03:24:39.807Z,10.63
2018-11-29T03:29:45.139Z,16.13
2018-11-29T03:34:49.697Z,11.83
2018-11-29T03:39:54.434Z,14.83
2018-11-29T03:45:00.125Z,12.13
2018-11-29T03:50:06.535Z,14.93
2018-11-29T03:55:11.388Z,14.83
2018-11-29T04:00:17.409Z,12.90
2018-11-29T04:05:22.110Z,14.27
2018-11-29T04:10:26.732Z,11.53
2018-11-29T04:15:31.254Z,13.63
2018-11-29T04:20:36.026Z,13.17
2018-11-29T04:25:40.635Z,12.93
2018-11-29T04:30:45.379Z,14.60
2018-11-29T04:35:49.950Z,11.20
2018-11-29T04:40:54.338Z,16.73
2018-11-29T04:46:10.070Z,16.27
2018-11-29T04:51:14.581Z,16.83
2018-11-29T04:56:19.390Z,15.00
2018-11-29T05:01:25.121Z,16.93
2018-11-29T05:06:36.395Z,15.57
2018-11-29T05:11:41.155Z,14.50
2018-11-29T05:16:45.668Z,14.27
2018-11-29T05:21:50.047Z,13.27
2018-11-29T05:26:55.993Z,12.57
2018-11-29T05:32:01.249Z,17.43
2018-11-29T05:37:06.506Z,13.73
2018-11-29T05:42:11.958Z,11.07
2018-11-29T05:47:21.651Z,12.53
2018-11-29T05:52:26.272Z,11.63
2018-11-29T05:57:31.344Z,11.20
2018-11-29T06:02:37.960Z,20.53
2018-11-29T06:07:42.494Z,16.47
2018-11-29T06:12:47.527Z,14.13
2018-11-29T06:17:52.640Z,13.63
2018-11-29T06:22:57.759Z,13.70
2018-11-29T06:28:02.220Z,18.27
2018-11-29T06:33:08.009Z,17.30
2018-11-29T06:38:13.283Z,15.63
2018-11-29T06:43:36.401Z,13.87
2018-11-29T06:48:40.952Z,15.63
2018-11-29T06:53:50.670Z,12.10
2018-11-29T06:58:56.301Z,11.53
2018-11-29T07:04:01.068Z,11.60
2018-11-29T07:09:08.047Z,13.10
2018-11-29T07:14:12.518Z,12.23
2018-11-29T07:19:17.275Z,15.60
2018-11-29T07:24:22.008Z,10.73
2018-11-29T07:29:26.620Z,11.63
2018-11-29T07:34:31.334Z,12.40
2018-11-29T07:39:35.925Z,12.10
2018-11-29T07:44:40.476Z,8.90
2018-11-29T07:49:44.987Z,11.13
2018-11-29T07:54:50.985Z,14.17
2018-11-29T07:59:55.452Z,9.87
2018-11-29T08:05:00.009Z,9.63
2018-11-29T08:10:05.302Z,15.40
2018-11-29T08:15:11.236Z,8.30
2018-11-29T08:20:17.810Z,8.57
2018-11-29T08:25:22.365Z,11.57
2018-11-29T08:30:26.872Z,7.93
2018-11-29T08:35:31.571Z,6.20
2018-11-29T08:40:37.450Z,13.43
2018-11-29T08:45:42.666Z,6.47
2018-11-29T08:50:47.402Z,8.23
2018-11-29T08:55:53.176Z,7.40
2018-11-29T09:00:57.828Z,6.87
2018-11-29T09:06:02.351Z,6.53
2018-11-29T09:11:07.350Z,5.43
2018-11-29T09:16:12.651Z,6.47
2018-11-29T09:21:17.302Z,6.47
2018-11-29T09:26:21.736Z,6.77
2018-11-29T09:31:26.238Z,6.30
2018-11-29T09:36:34.167Z,7.07
2018-11-29T09:41:38.624Z,7.43
2018-11-29T09:46:43.102Z,7.47
2018-11-29T09:51:47.653Z,5.67
2018-11-29T09:56:52.279Z,4.53
2018-11-29T10:01:56.761Z,5.75
2018-11-29T10:07:01.383Z,6.10
2018-11-29T10:12:06.174Z,5.87
2018-11-29T10:17:10.746Z,5.03
2018-11-29T10:22:15.701Z,5.47
2018-11-29T10:27:20.903Z,5.13
2018-11-29T10:32:26.319Z,5.03
2018-11-29T10:37:30.830Z,5.80
2018-11-29T10:42:36.794Z,5.40
2018-11-29T10:47:42.283Z,5.93
2018-11-29T10:52:46.702Z,5.63
2018-11-29T10:57:51.518Z,9.40
2018-11-29T11:03:03.114Z,10.33
2018-11-29T11:08:08.949Z,8.67
2018-11-29T11:13:13.464Z,10.20
2018-11-29T11:18:18.573Z,11.67
2018-11-29T11:23:24.583Z,11.80
2018-11-29T11:28:29.481Z,12.47
2018-11-29T11:33:34.443Z,11.67
2018-11-29T11:38:40.685Z,8.97
2018-11-29T11:43:45.304Z,10.47
2018-11-29T11:48:51.921Z,8.63
2018-11-29T11:53:56.904Z,7.97
2018-11-29T11:59:01.549Z,10.17
2018-11-29T12:04:07.325Z,8.40
2018-11-29T12:09:13.631Z,10.30
2018-11-29T12:14:18.716Z,9.60
2018-11-29T12:19:23.423Z,11.07
2018-11-29T12:24:29.249Z,12.63
2018-11-29T12:29:33.949Z,11.63
2018-11-29T12:34:38.315Z,9.30
2018-11-29T12:39:43.526Z,11.83
2018-11-29T12:44:48.049Z,11.70
2018-11-29T12:49:52.682Z,12.23
2018-11-29T12:54:57.291Z,11.37
2018-11-29T13:00:02.739Z,9.83
2018-11-29T13:05:08.718Z,9.63
2018-11-29T13:10:14.523Z,10.80
2018-11-29T13:15:21.558Z,12.00
2018-11-29T13:20:25.918Z,18.07
2018-11-29T13:25:30.824Z,17.13
2018-11-29T13:30:58.711Z,16.87
2018-11-29T13:36:03.592Z,16.87
2018-11-29T13:41:09.232Z,19.00
2018-11-29T13:46:20.636Z,17.93
2018-11-29T13:51:26.234Z,18.77
2018-11-29T13:56:31.404Z,19.20
2018-11-29T14:01:35.936Z,16.57
2018-11-29T14:06:41.017Z,18.03
2018-11-29T14:11:45.433Z,20.97
2018-11-29T14:16:50.017Z,19.57
2018-11-29T14:21:54.699Z,19.17
2018-11-29T14:26:59.444Z,18.77
2018-11-29T14:32:04.206Z,17.47
2018-11-29T14:37:08.996Z,22.53
2018-11-29T14:42:14.107Z,22.10
2018-11-29T14:47:18.465Z,19.03
2018-11-29T14:52:23.807Z,22.37
2018-11-29T14:57:28.599Z,17.57
2018-11-29T15:02:33.317Z,18.00
2018-11-29T15:07:37.775Z,19.50
2018-11-29T15:12:43.613Z,21.83
2018-11-29T15:17:51.006Z,18.77
2018-11-29T15:22:56.030Z,19.13
2018-11-29T15:28:00.598Z,17.83
2018-11-29T15:33:05.252Z,17.23
2018-11-29T15:38:11.686Z,24.47
2018-11-29T15:43:16.434Z,17.97
2018-11-29T15:48:20.991Z,17.80
2018-11-29T15:53:25.647Z,18.33
2018-11-29T15:58:30.774Z,15.90
2018-11-29T16:03:35.287Z,17.50
2018-11-29T16:08:39.830Z,17.23
2018-11-29T16:13:45.983Z,15.90
2018-11-29T16:18:50.652Z,17.43
2018-11-29T16:23:55.903Z,16.97
2018-11-29T16:29:00.399Z,17.33
2018-11-29T16:34:06.231Z,14.63
2018-11-29T16:39:11.248Z,18.40
2018-11-29T16:44:16.438Z,16.40
2018-11-29T16:49:21.984Z,16.13
2018-11-29T16:54:27.477Z,13.73
2018-11-29T16:59:36.234Z,13.90
2018-11-29T17:04:41.643Z,19.87
2018-11-29T17:09:46.537Z,15.80
2018-11-29T17:14:52.179Z,14.97
2018-11-29T17:20:00.048Z,20.00
2018-11-29T17:25:05.585Z,13.23
2018-11-29T17:30:14.666Z,14.83
2018-11-29T17:35:19.036Z,17.47
2018-11-29T17:40:24.441Z,16.37
2018-11-29T17:45:31.330Z,15.50
2018-11-29T17:50:41.873Z,15.30
2018-11-29T17:55:49.583Z,18.33
2018-11-29T18:00:55.918Z,15.67
2018-11-29T18:06:03.077Z,15.83
2018-11-29T18:11:10.260Z,17.50
2018-11-29T18:16:17.456Z,19.97
2018-11-29T18:21:24.306Z,15.77
2018-11-29T18:26:29.363Z,15.30
2018-11-29T18:31:34.722Z,23.53
2018-11-29T18:36:40.503Z,18.43
2018-11-29T18:41:47.005Z,23.53
2018-11-29T18:46:51.731Z,15.73
2018-11-29T18:51:57.283Z,19.30
2018-11-29T18:57:02.076Z,15.10
2018-11-29T19:02:09.128Z,16.60
2018-11-29T19:07:14.025Z,13.03
2018-11-29T19:12:19.102Z,12.10
2018-11-29T19:17:25.181Z,12.43
2018-11-29T19:22:29.031Z,16.57
2018-11-29T19:27:34.137Z,13.27
2018-11-29T19:32:39.059Z,17.00
2018-11-29T19:37:43.950Z,14.17
2018-11-29T19:42:49.224Z,14.93
2018-11-29T19:47:54.580Z,15.07
2018-11-29T19:53:00.971Z,11.70
2018-11-29T19:58:07.211Z,12.77
2018-11-29T20:03:11.965Z,12.97
2018-11-29T20:08:16.947Z,11.77
2018-11-29T20:13:21.924Z,15.07
2018-11-29T20:18:26.571Z,14.57
2018-11-29T20:23:31.070Z,14.37
2018-11-29T20:28:36.036Z,18.53
2018-11-29T20:33:40.696Z,19.67
2018-11-29T20:38:45.451Z,16.13
2018-11-29T20:43:50.053Z,15.20
2018-11-29T20:48:54.622Z,14.77
2018-11-29T20:53:59.070Z,14.50
2018-11-29T20:59:03.603Z,14.97
2018-11-29T21:04:09.754Z,15.93
2018-11-29T21:09:14.577Z,15.10
2018-11-29T21:14:19.140Z,13.40
2018-11-29T21:19:25.059Z,17.00
2018-11-29T21:24:30.020Z,16.37
2018-11-29T21:29:34.884Z,15.30
2018-11-29T21:34:39.850Z,17.10
2018-11-29T21:39:44.814Z,14.13
2018-11-29T21:44:49.659Z,13.10
2018-11-29T21:49:54.480Z,15.73
2018-11-29T21:54:59.541Z,15.83
2018-11-29T22:00:07.293Z,15.33
2018-11-29T22:05:12.171Z,14.93
2018-11-29T22:10:17.173Z,13.97
2018-11-29T22:15:21.795Z,15.27
2018-11-29T22:20:26.863Z,14.37
2018-11-29T22:25:32.205Z,16.20
2018-11-29T22:30:36.800Z,16.07
2018-11-29T22:35:41.476Z,13.90
2018-11-29T22:40:46.758Z,15.80
2018-11-29T22:45:51.942Z,15.13
2018-11-29T22:50:56.583Z,15.63
2018-11-29T22:56:01.079Z,15.33
2018-11-29T23:01:10.450Z,16.10
2018-11-29T23:06:14.887Z,15.37
2018-11-29T23:11:19.356Z,14.70
2018-11-29T23:16:23.958Z,15.43
2018-11-29T23:21:29.262Z,15.20
2018-11-29T23:26:34.041Z,13.13
2018-11-29T23:31:38.892Z,13.77
2018-11-29T23:36:43.537Z,12.63
2018-11-29T23:41:49.105Z,15.07
2018-11-29T23:46:54.460Z,11.60
2018-11-29T23:51:58.972Z,14.90
2018-11-29T23:57:03.248Z,12.97
